Airfield :
LOGIN :

Register | Disclaimer

   EN    FR    IT 

 










Legend :    VFR   Marginal VFR   IFR   Intensive IFR   Very Intensive IFR
Visi :
Ceiling :
>= 8 km
>= 3000ft
5 to 8 km
1000 to 3000 ft
1500m to 5 km
500 to 1000 ft
800 to 1500m
200 to 500 ft
< 800m
< 200 ft
Symbols :   Thunderstorms  Fog  Heavy snow  Heavy precipitations  Wind > 20 kt
SIGMETs :     Misc.  Thunderstorms  Icing  Turbulence  Mountain Waves  Volcanic Ashes






- Airport Elevation : 80 ft
- IATA code : LPL


EGGP - Liverpool John Lennon

CURRENT METAR :
  • 170520Z 35004KT 9999 FEW008 BKN029 07/07 Q1009

EXPIRED METARs :
  • 170450Z VRB02KT 9999 -DZ OVC026 07/07 Q1009
  • 170420Z VRB02KT 9999 -DZ OVC026 08/08 Q1009
  • 170350Z 30004KT 9999 -DZ OVC026 08/08 Q1008
  • 170320Z 29003KT 9999 -DZ OVC026 07/07 Q1008
  • 170250Z 28002KT 9999 -DZ OVC026 08/08 Q1008
  • 170220Z 32002KT 9999 -DZ OVC026 07/07 Q1008

TAF TAF EGGP
Valid from the 17 at 00:00 until the 18 at 00:00 UTC


162256Z 1700/1724 33006KT 9999 SCT010 BKN020
TEMPO 1700/1718 6000 -RA FEW006 BKN010
PROB30
TEMPO 1700/1712 4000 RADZ BR BKN006
ATIS : +44 151 907 2000 (option 5 or ext 5150)
Met : +44 871 750 5150



MET'MAP, your aeronautical weather chart ! - Copyright ORBIFLY December 2007 - Disclaimer

ORBIFLY MET'MAP TEAM :

Programming & Development : Alexandra Zaïnal
Concept & Development : Baudouin d'Aumeries
Co-Development & Prog : Marc-Olivier Méhu
Technical & hardware support : Manuel Goepfert

Contact : metmap@orbifly.com




SOURCES & CREDITS :

   NOAA